sensor_id;sensor_type;location;lat;lon;timestamp;temperature;humidity
17887;DHT22;9069;52.044;7.472;2022-07-03T00:00:01;24.40;54.90
17887;DHT22;9069;52.044;7.472;2022-07-03T00:02:37;24.30;54.20
17887;DHT22;9069;52.044;7.472;2022-07-03T00:05:04;24.30;54.30
17887;DHT22;9069;52.044;7.472;2022-07-03T00:07:31;24.30;54.40
17887;DHT22;9069;52.044;7.472;2022-07-03T00:09:58;24.20;55.10
17887;DHT22;9069;52.044;7.472;2022-07-03T00:12:25;24.20;54.60
17887;DHT22;9069;52.044;7.472;2022-07-03T00:14:51;24.10;54.60
17887;DHT22;9069;52.044;7.472;2022-07-03T00:17:18;24.10;54.70
17887;DHT22;9069;52.044;7.472;2022-07-03T00:19:45;24.10;54.70
17887;DHT22;9069;52.044;7.472;2022-07-03T00:22:13;24.10;54.80
17887;DHT22;9069;52.044;7.472;2022-07-03T00:24:52;24.10;55.00
17887;DHT22;9069;52.044;7.472;2022-07-03T00:27:21;24.00;55.30
17887;DHT22;9069;52.044;7.472;2022-07-03T00:29:50;24.00;55.00
17887;DHT22;9069;52.044;7.472;2022-07-03T00:32:22;24.00;55.00
17887;DHT22;9069;52.044;7.472;2022-07-03T00:34:55;24.00;55.00
17887;DHT22;9069;52.044;7.472;2022-07-03T00:37:23;23.90;55.00
17887;DHT22;9069;52.044;7.472;2022-07-03T00:39:50;23.90;54.90
17887;DHT22;9069;52.044;7.472;2022-07-03T00:42:18;23.90;54.80
17887;DHT22;9069;52.044;7.472;2022-07-03T00:44:53;23.90;55.00
17887;DHT22;9069;52.044;7.472;2022-07-03T00:47:22;24.00;55.30
17887;DHT22;9069;52.044;7.472;2022-07-03T00:49:52;23.80;55.10
17887;DHT22;9069;52.044;7.472;2022-07-03T00:52:21;23.80;55.10
17887;DHT22;9069;52.044;7.472;2022-07-03T00:54:54;23.80;55.20
17887;DHT22;9069;52.044;7.472;2022-07-03T00:57:23;23.80;55.30
17887;DHT22;9069;52.044;7.472;2022-07-03T00:59:50;23.70;55.20
17887;DHT22;9069;52.044;7.472;2022-07-03T01:08:00;23.70;55.50
17887;DHT22;9069;52.044;7.472;2022-07-03T01:18:56;23.60;55.60
17887;DHT22;9069;52.044;7.472;2022-07-03T01:24:56;23.60;55.40
17887;DHT22;9069;52.044;7.472;2022-07-03T01:27:29;23.60;55.80
17887;DHT22;9069;52.044;7.472;2022-07-03T01:32:43;23.50;55.80
17887;DHT22;9069;52.044;7.472;2022-07-03T01:35:16;23.50;55.80
17887;DHT22;9069;52.044;7.472;2022-07-03T01:37:45;23.50;55.70
17887;DHT22;9069;52.044;7.472;2022-07-03T01:40:11;23.50;55.80
17887;DHT22;9069;52.044;7.472;2022-07-03T01:42:40;23.40;55.70
17887;DHT22;9069;52.044;7.472;2022-07-03T01:45:09;23.40;55.80
17887;DHT22;9069;52.044;7.472;2022-07-03T01:47:38;23.40;55.80
17887;DHT22;9069;52.044;7.472;2022-07-03T01:50:07;23.40;55.80
17887;DHT22;9069;52.044;7.472;2022-07-03T01:52:37;23.40;55.70
17887;DHT22;9069;52.044;7.472;2022-07-03T01:55:14;23.40;55.60
17887;DHT22;9069;52.044;7.472;2022-07-03T01:57:43;23.40;55.60
17887;DHT22;9069;52.044;7.472;2022-07-03T02:00:12;23.40;55.50
17887;DHT22;9069;52.044;7.472;2022-07-03T02:02:44;23.40;55.60
17887;DHT22;9069;52.044;7.472;2022-07-03T02:05:34;23.40;55.70
17887;DHT22;9069;52.044;7.472;2022-07-03T02:10:40;23.40;55.70
17887;DHT22;9069;52.044;7.472;2022-07-03T02:13:19;23.30;55.50
17887;DHT22;9069;52.044;7.472;2022-07-03T02:15:50;23.30;55.50
17887;DHT22;9069;52.044;7.472;2022-07-03T02:18:29;23.30;55.50
17887;DHT22;9069;52.044;7.472;2022-07-03T02:21:19;23.30;55.60
17887;DHT22;9069;52.044;7.472;2022-07-03T02:26:29;23.30;55.90
17887;DHT22;9069;52.044;7.472;2022-07-03T02:29:02;23.30;55.90
17887;DHT22;9069;52.044;7.472;2022-07-03T02:31:37;23.30;55.70
17887;DHT22;9069;52.044;7.472;2022-07-03T02:34:07;23.30;55.90
17887;DHT22;9069;52.044;7.472;2022-07-03T02:36:35;23.30;55.90
17887;DHT22;9069;52.044;7.472;2022-07-03T02:39:04;23.30;55.90
17887;DHT22;9069;52.044;7.472;2022-07-03T02:41:46;23.30;56.00
17887;DHT22;9069;52.044;7.472;2022-07-03T02:44:23;23.20;56.10
17887;DHT22;9069;52.044;7.472;2022-07-03T02:47:01;23.20;56.10
17887;DHT22;9069;52.044;7.472;2022-07-03T02:50:17;23.20;56.10
17887;DHT22;9069;52.044;7.472;2022-07-03T02:55:34;23.20;56.70
17887;DHT22;9069;52.044;7.472;2022-07-03T02:58:40;23.20;57.10
17887;DHT22;9069;52.044;7.472;2022-07-03T03:04:14;23.20;57.40
17887;DHT22;9069;52.044;7.472;2022-07-03T03:07:08;23.10;57.50
17887;DHT22;9069;52.044;7.472;2022-07-03T03:09:41;23.00;57.70
17887;DHT22;9069;52.044;7.472;2022-07-03T03:12:11;23.00;57.80
17887;DHT22;9069;52.044;7.472;2022-07-03T03:14:43;23.00;57.70
17887;DHT22;9069;52.044;7.472;2022-07-03T03:17:17;22.90;58.10
17887;DHT22;9069;52.044;7.472;2022-07-03T03:19:55;22.90;58.30
17887;DHT22;9069;52.044;7.472;2022-07-03T03:25:22;22.80;58.90
17887;DHT22;9069;52.044;7.472;2022-07-03T03:27:49;22.80;58.40
17887;DHT22;9069;52.044;7.472;2022-07-03T03:30:16;22.70;58.50
17887;DHT22;9069;52.044;7.472;2022-07-03T03:32:42;22.70;58.70
17887;DHT22;9069;52.044;7.472;2022-07-03T03:35:09;22.70;58.80
17887;DHT22;9069;52.044;7.472;2022-07-03T03:37:36;22.60;58.90
17887;DHT22;9069;52.044;7.472;2022-07-03T03:40:04;22.60;59.10
17887;DHT22;9069;52.044;7.472;2022-07-03T03:42:31;22.60;59.30
17887;DHT22;9069;52.044;7.472;2022-07-03T03:44:58;22.60;59.40
17887;DHT22;9069;52.044;7.472;2022-07-03T03:47:24;22.60;59.60
17887;DHT22;9069;52.044;7.472;2022-07-03T03:49:51;22.70;59.60
17887;DHT22;9069;52.044;7.472;2022-07-03T03:52:18;22.60;59.60
17887;DHT22;9069;52.044;7.472;2022-07-03T03:54:45;22.50;59.60
17887;DHT22;9069;52.044;7.472;2022-07-03T03:57:29;22.50;59.70
17887;DHT22;9069;52.044;7.472;2022-07-03T03:59:56;22.50;60.30
17887;DHT22;9069;52.044;7.472;2022-07-03T04:02:23;22.40;59.80
17887;DHT22;9069;52.044;7.472;2022-07-03T04:04:50;22.40;59.80
17887;DHT22;9069;52.044;7.472;2022-07-03T04:07:17;22.40;60.00
17887;DHT22;9069;52.044;7.472;2022-07-03T04:09:44;22.40;60.30
17887;DHT22;9069;52.044;7.472;2022-07-03T04:12:12;22.40;60.60
17887;DHT22;9069;52.044;7.472;2022-07-03T04:14:39;22.40;60.80
17887;DHT22;9069;52.044;7.472;2022-07-03T04:17:06;22.40;61.00
17887;DHT22;9069;52.044;7.472;2022-07-03T04:19:33;22.40;61.20
17887;DHT22;9069;52.044;7.472;2022-07-03T04:21:59;22.40;61.40
17887;DHT22;9069;52.044;7.472;2022-07-03T04:24:26;22.50;61.50
17887;DHT22;9069;52.044;7.472;2022-07-03T04:26:53;22.50;61.60
17887;DHT22;9069;52.044;7.472;2022-07-03T04:29:19;22.50;61.70
17887;DHT22;9069;52.044;7.472;2022-07-03T04:31:46;22.50;61.80
17887;DHT22;9069;52.044;7.472;2022-07-03T04:34:13;22.60;62.00
17887;DHT22;9069;52.044;7.472;2022-07-03T04:36:40;22.60;62.20
17887;DHT22;9069;52.044;7.472;2022-07-03T04:39:07;22.70;62.30
17887;DHT22;9069;52.044;7.472;2022-07-03T04:41:33;22.80;62.30
17887;DHT22;9069;52.044;7.472;2022-07-03T04:44:00;22.90;62.40
17887;DHT22;9069;52.044;7.472;2022-07-03T04:46:27;23.10;62.50
17887;DHT22;9069;52.044;7.472;2022-07-03T04:48:54;23.20;62.50
17887;DHT22;9069;52.044;7.472;2022-07-03T04:51:20;23.40;62.70
17887;DHT22;9069;52.044;7.472;2022-07-03T04:53:47;23.50;62.10
17887;DHT22;9069;52.044;7.472;2022-07-03T04:56:14;23.60;61.20
17887;DHT22;9069;52.044;7.472;2022-07-03T04:58:41;23.70;61.20
17887;DHT22;9069;52.044;7.472;2022-07-03T05:01:07;23.80;61.20
17887;DHT22;9069;52.044;7.472;2022-07-03T05:03:34;23.90;61.30
17887;DHT22;9069;52.044;7.472;2022-07-03T05:06:01;24.00;61.40
17887;DHT22;9069;52.044;7.472;2022-07-03T05:08:28;24.10;61.70
17887;DHT22;9069;52.044;7.472;2022-07-03T05:10:54;24.20;61.80
17887;DHT22;9069;52.044;7.472;2022-07-03T05:13:21;24.30;61.60
17887;DHT22;9069;52.044;7.472;2022-07-03T05:15:48;24.50;61.60
17887;DHT22;9069;52.044;7.472;2022-07-03T05:18:15;24.70;61.90
17887;DHT22;9069;52.044;7.472;2022-07-03T05:20:47;24.90;61.70
17887;DHT22;9069;52.044;7.472;2022-07-03T05:23:14;25.20;61.70
17887;DHT22;9069;52.044;7.472;2022-07-03T05:25:41;25.40;61.70
17887;DHT22;9069;52.044;7.472;2022-07-03T05:28:08;25.70;61.60
17887;DHT22;9069;52.044;7.472;2022-07-03T05:30:35;25.90;61.40
17887;DHT22;9069;52.044;7.472;2022-07-03T05:33:02;26.10;60.60
17887;DHT22;9069;52.044;7.472;2022-07-03T05:35:29;26.30;60.10
17887;DHT22;9069;52.044;7.472;2022-07-03T05:37:55;26.50;60.00
17887;DHT22;9069;52.044;7.472;2022-07-03T05:40:22;26.60;60.00
17887;DHT22;9069;52.044;7.472;2022-07-03T05:42:49;26.70;59.90
17887;DHT22;9069;52.044;7.472;2022-07-03T05:45:16;26.80;59.60
17887;DHT22;9069;52.044;7.472;2022-07-03T05:47:42;27.00;59.60
17887;DHT22;9069;52.044;7.472;2022-07-03T05:50:10;27.10;59.40
17887;DHT22;9069;52.044;7.472;2022-07-03T05:52:37;27.20;59.20
17887;DHT22;9069;52.044;7.472;2022-07-03T05:55:04;27.40;58.60
17887;DHT22;9069;52.044;7.472;2022-07-03T05:57:31;27.60;58.40
17887;DHT22;9069;52.044;7.472;2022-07-03T06:00:00;27.80;58.10
17887;DHT22;9069;52.044;7.472;2022-07-03T06:02:27;28.00;57.60
17887;DHT22;9069;52.044;7.472;2022-07-03T06:04:53;28.20;57.60
17887;DHT22;9069;52.044;7.472;2022-07-03T06:07:20;28.40;57.30
17887;DHT22;9069;52.044;7.472;2022-07-03T06:09:48;28.60;56.80
17887;DHT22;9069;52.044;7.472;2022-07-03T06:12:15;28.80;56.60
17887;DHT22;9069;52.044;7.472;2022-07-03T06:14:41;28.90;56.20
17887;DHT22;9069;52.044;7.472;2022-07-03T06:17:08;29.00;55.30
17887;DHT22;9069;52.044;7.472;2022-07-03T06:19:35;29.20;54.70
17887;DHT22;9069;52.044;7.472;2022-07-03T06:22:02;29.30;54.40
17887;DHT22;9069;52.044;7.472;2022-07-03T06:24:28;29.40;54.10
17887;DHT22;9069;52.044;7.472;2022-07-03T06:26:55;29.60;53.90
17887;DHT22;9069;52.044;7.472;2022-07-03T06:29:22;29.70;53.60
17887;DHT22;9069;52.044;7.472;2022-07-03T06:31:48;29.80;53.50
17887;DHT22;9069;52.044;7.472;2022-07-03T06:34:15;30.00;53.50
17887;DHT22;9069;52.044;7.472;2022-07-03T06:36:42;30.10;53.30
17887;DHT22;9069;52.044;7.472;2022-07-03T06:39:09;30.30;53.50
17887;DHT22;9069;52.044;7.472;2022-07-03T06:41:35;30.40;53.30
17887;DHT22;9069;52.044;7.472;2022-07-03T06:44:02;30.60;53.10
17887;DHT22;9069;52.044;7.472;2022-07-03T06:46:29;30.70;52.80
17887;DHT22;9069;52.044;7.472;2022-07-03T06:48:55;30.90;52.60
17887;DHT22;9069;52.044;7.472;2022-07-03T06:51:22;31.10;52.30
17887;DHT22;9069;52.044;7.472;2022-07-03T06:53:49;31.20;52.30
17887;DHT22;9069;52.044;7.472;2022-07-03T06:56:15;31.40;52.10
17887;DHT22;9069;52.044;7.472;2022-07-03T06:58:42;31.60;51.80
17887;DHT22;9069;52.044;7.472;2022-07-03T07:01:09;31.90;51.50
17887;DHT22;9069;52.044;7.472;2022-07-03T07:03:36;32.00;51.30
17887;DHT22;9069;52.044;7.472;2022-07-03T07:06:03;32.30;50.90
17887;DHT22;9069;52.044;7.472;2022-07-03T07:08:29;32.50;51.30
17887;DHT22;9069;52.044;7.472;2022-07-03T07:10:56;32.70;50.50
17887;DHT22;9069;52.044;7.472;2022-07-03T07:13:23;32.90;50.10
17887;DHT22;9069;52.044;7.472;2022-07-03T07:15:49;33.20;49.80
17887;DHT22;9069;52.044;7.472;2022-07-03T07:18:16;33.40;49.80
17887;DHT22;9069;52.044;7.472;2022-07-03T07:20:43;33.60;49.30
17887;DHT22;9069;52.044;7.472;2022-07-03T07:23:09;33.80;49.00
17887;DHT22;9069;52.044;7.472;2022-07-03T07:25:36;34.00;48.80
17887;DHT22;9069;52.044;7.472;2022-07-03T07:28:09;34.10;48.50
17887;DHT22;9069;52.044;7.472;2022-07-03T07:30:36;34.40;48.20
17887;DHT22;9069;52.044;7.472;2022-07-03T07:33:03;34.60;48.20
17887;DHT22;9069;52.044;7.472;2022-07-03T07:35:29;34.70;48.00
17887;DHT22;9069;52.044;7.472;2022-07-03T07:37:56;34.90;47.70
17887;DHT22;9069;52.044;7.472;2022-07-03T07:40:23;35.00;47.10
17887;DHT22;9069;52.044;7.472;2022-07-03T07:42:49;35.20;47.10
17887;DHT22;9069;52.044;7.472;2022-07-03T07:45:16;35.40;46.80
17887;DHT22;9069;52.044;7.472;2022-07-03T07:47:43;35.50;46.40
17887;DHT22;9069;52.044;7.472;2022-07-03T07:50:10;35.70;46.10
17887;DHT22;9069;52.044;7.472;2022-07-03T07:52:37;35.80;45.70
17887;DHT22;9069;52.044;7.472;2022-07-03T07:55:04;35.80;45.30
17887;DHT22;9069;52.044;7.472;2022-07-03T07:57:37;35.90;45.30
17887;DHT22;9069;52.044;7.472;2022-07-03T08:00:09;35.90;45.30
17887;DHT22;9069;52.044;7.472;2022-07-03T08:02:38;36.00;45.20
17887;DHT22;9069;52.044;7.472;2022-07-03T08:05:23;36.00;45.30
17887;DHT22;9069;52.044;7.472;2022-07-03T08:08:07;36.10;45.30
17887;DHT22;9069;52.044;7.472;2022-07-03T08:10:35;36.20;45.10
17887;DHT22;9069;52.044;7.472;2022-07-03T08:13:03;36.30;45.00
17887;DHT22;9069;52.044;7.472;2022-07-03T08:15:30;36.50;45.10
17887;DHT22;9069;52.044;7.472;2022-07-03T08:17:57;36.60;44.80
17887;DHT22;9069;52.044;7.472;2022-07-03T08:20:24;36.80;44.60
17887;DHT22;9069;52.044;7.472;2022-07-03T08:22:51;37.00;44.20
17887;DHT22;9069;52.044;7.472;2022-07-03T08:25:17;37.20;44.00
17887;DHT22;9069;52.044;7.472;2022-07-03T08:27:44;37.40;43.70
17887;DHT22;9069;52.044;7.472;2022-07-03T08:30:11;37.60;43.80
17887;DHT22;9069;52.044;7.472;2022-07-03T08:32:40;37.80;43.50
17887;DHT22;9069;52.044;7.472;2022-07-03T08:35:07;38.00;43.20
17887;DHT22;9069;52.044;7.472;2022-07-03T08:37:34;38.20;43.00
17887;DHT22;9069;52.044;7.472;2022-07-03T08:40:03;38.40;42.60
17887;DHT22;9069;52.044;7.472;2022-07-03T08:42:30;38.70;42.10
17887;DHT22;9069;52.044;7.472;2022-07-03T08:45:00;38.80;41.90
17887;DHT22;9069;52.044;7.472;2022-07-03T08:47:29;39.00;41.80
17887;DHT22;9069;52.044;7.472;2022-07-03T08:50:00;39.20;41.70
17887;DHT22;9069;52.044;7.472;2022-07-03T08:52:28;39.40;41.30
17887;DHT22;9069;52.044;7.472;2022-07-03T08:54:55;39.60;41.20
17887;DHT22;9069;52.044;7.472;2022-07-03T08:57:22;39.70;40.70
17887;DHT22;9069;52.044;7.472;2022-07-03T08:59:52;39.80;40.60
17887;DHT22;9069;52.044;7.472;2022-07-03T09:02:21;39.90;39.80
17887;DHT22;9069;52.044;7.472;2022-07-03T09:04:49;40.00;39.80
17887;DHT22;9069;52.044;7.472;2022-07-03T09:07:17;40.10;40.10
17887;DHT22;9069;52.044;7.472;2022-07-03T09:09:44;40.10;39.70
17887;DHT22;9069;52.044;7.472;2022-07-03T09:12:13;40.20;39.50
17887;DHT22;9069;52.044;7.472;2022-07-03T09:14:40;40.20;39.40
17887;DHT22;9069;52.044;7.472;2022-07-03T09:17:07;40.30;39.90
17887;DHT22;9069;52.044;7.472;2022-07-03T09:19:48;40.30;39.60
17887;DHT22;9069;52.044;7.472;2022-07-03T09:22:25;40.50;39.50
17887;DHT22;9069;52.044;7.472;2022-07-03T09:24:54;40.50;38.70
17887;DHT22;9069;52.044;7.472;2022-07-03T09:27:28;40.50;39.40
17887;DHT22;9069;52.044;7.472;2022-07-03T09:30:06;40.60;39.30
17887;DHT22;9069;52.044;7.472;2022-07-03T09:32:42;40.60;38.40
17887;DHT22;9069;52.044;7.472;2022-07-03T09:35:23;40.70;37.90
17887;DHT22;9069;52.044;7.472;2022-07-03T09:38:01;40.70;38.40
17887;DHT22;9069;52.044;7.472;2022-07-03T09:40:53;40.70;38.10
17887;DHT22;9069;52.044;7.472;2022-07-03T09:43:30;40.70;38.70
17887;DHT22;9069;52.044;7.472;2022-07-03T09:45:58;40.70;38.20
17887;DHT22;9069;52.044;7.472;2022-07-03T09:48:39;40.70;38.60
17887;DHT22;9069;52.044;7.472;2022-07-03T09:51:11;40.80;38.60
17887;DHT22;9069;52.044;7.472;2022-07-03T09:56:42;40.90;38.30
17887;DHT22;9069;52.044;7.472;2022-07-03T09:59:15;40.90;38.50
17887;DHT22;9069;52.044;7.472;2022-07-03T10:01:44;41.00;38.70
17887;DHT22;9069;52.044;7.472;2022-07-03T10:04:21;41.10;38.90
17887;DHT22;9069;52.044;7.472;2022-07-03T10:06:53;41.10;38.40
17887;DHT22;9069;52.044;7.472;2022-07-03T10:09:22;41.40;38.40
17887;DHT22;9069;52.044;7.472;2022-07-03T10:11:50;41.40;38.30
17887;DHT22;9069;52.044;7.472;2022-07-03T10:14:19;41.50;38.20
17887;DHT22;9069;52.044;7.472;2022-07-03T10:16:46;41.60;37.70
17887;DHT22;9069;52.044;7.472;2022-07-03T10:19:21;41.70;37.90
17887;DHT22;9069;52.044;7.472;2022-07-03T10:21:56;41.90;37.70
17887;DHT22;9069;52.044;7.472;2022-07-03T10:24:24;42.00;37.10
17887;DHT22;9069;52.044;7.472;2022-07-03T10:26:53;42.10;37.50
17887;DHT22;9069;52.044;7.472;2022-07-03T10:29:25;42.20;37.50
17887;DHT22;9069;52.044;7.472;2022-07-03T10:31:56;42.30;37.10
17887;DHT22;9069;52.044;7.472;2022-07-03T10:34:25;42.40;36.90
17887;DHT22;9069;52.044;7.472;2022-07-03T10:37:01;42.50;36.70
17887;DHT22;9069;52.044;7.472;2022-07-03T10:39:52;42.50;36.00
17887;DHT22;9069;52.044;7.472;2022-07-03T10:42:31;42.50;36.20
17887;DHT22;9069;52.044;7.472;2022-07-03T10:45:19;42.50;36.20
17887;DHT22;9069;52.044;7.472;2022-07-03T10:47:47;42.40;36.30
17887;DHT22;9069;52.044;7.472;2022-07-03T10:50:20;42.40;36.00
17887;DHT22;9069;52.044;7.472;2022-07-03T10:52:47;42.30;35.80
17887;DHT22;9069;52.044;7.472;2022-07-03T10:55:15;42.20;36.00
17887;DHT22;9069;52.044;7.472;2022-07-03T10:58:05;42.10;36.00
17887;DHT22;9069;52.044;7.472;2022-07-03T11:00:30;41.80;35.70
17887;DHT22;9069;52.044;7.472;2022-07-03T11:02:57;41.70;35.90
17887;DHT22;9069;52.044;7.472;2022-07-03T11:05:25;41.40;35.70
17887;DHT22;9069;52.044;7.472;2022-07-03T11:13:03;40.40;36.10
17887;DHT22;9069;52.044;7.472;2022-07-03T11:15:43;40.00;36.70
17887;DHT22;9069;52.044;7.472;2022-07-03T11:18:14;39.60;36.70
17887;DHT22;9069;52.044;7.472;2022-07-03T11:26:21;38.80;37.50
17887;DHT22;9069;52.044;7.472;2022-07-03T11:28:52;38.50;38.30
17887;DHT22;9069;52.044;7.472;2022-07-03T11:31:20;38.10;38.10
17887;DHT22;9069;52.044;7.472;2022-07-03T11:39:07;37.40;39.50
17887;DHT22;9069;52.044;7.472;2022-07-03T11:44:04;37.00;40.10
17887;DHT22;9069;52.044;7.472;2022-07-03T11:46:32;36.80;39.80
17887;DHT22;9069;52.044;7.472;2022-07-03T11:49:12;36.70;40.10
17887;DHT22;9069;52.044;7.472;2022-07-03T11:51:40;36.60;40.20
17887;DHT22;9069;52.044;7.472;2022-07-03T11:54:08;36.40;40.20
17887;DHT22;9069;52.044;7.472;2022-07-03T11:56:35;36.30;40.20
17887;DHT22;9069;52.044;7.472;2022-07-03T11:59:04;36.10;40.50
17887;DHT22;9069;52.044;7.472;2022-07-03T12:01:36;35.90;40.50
17887;DHT22;9069;52.044;7.472;2022-07-03T12:04:23;35.60;41.10
17887;DHT22;9069;52.044;7.472;2022-07-03T12:06:52;35.40;42.10
17887;DHT22;9069;52.044;7.472;2022-07-03T12:09:30;35.20;42.20
17887;DHT22;9069;52.044;7.472;2022-07-03T12:12:01;35.10;42.10
17887;DHT22;9069;52.044;7.472;2022-07-03T12:14:44;34.90;42.00
17887;DHT22;9069;52.044;7.472;2022-07-03T12:17:18;34.70;42.20
17887;DHT22;9069;52.044;7.472;2022-07-03T12:20:01;34.50;42.40
17887;DHT22;9069;52.044;7.472;2022-07-03T12:22:34;34.40;43.10
17887;DHT22;9069;52.044;7.472;2022-07-03T12:25:04;34.20;42.80
17887;DHT22;9069;52.044;7.472;2022-07-03T12:27:37;34.10;43.00
17887;DHT22;9069;52.044;7.472;2022-07-03T12:30:05;34.00;43.40
17887;DHT22;9069;52.044;7.472;2022-07-03T12:32:32;33.90;43.90
17887;DHT22;9069;52.044;7.472;2022-07-03T12:35:00;33.70;44.20
17887;DHT22;9069;52.044;7.472;2022-07-03T12:37:31;33.80;44.00
17887;DHT22;9069;52.044;7.472;2022-07-03T12:39:59;33.60;43.80
17887;DHT22;9069;52.044;7.472;2022-07-03T12:42:26;33.50;44.10
17887;DHT22;9069;52.044;7.472;2022-07-03T12:45:01;33.40;44.20
17887;DHT22;9069;52.044;7.472;2022-07-03T12:47:29;33.30;45.10
17887;DHT22;9069;52.044;7.472;2022-07-03T12:50:01;33.20;44.80
17887;DHT22;9069;52.044;7.472;2022-07-03T12:52:30;33.20;45.00
17887;DHT22;9069;52.044;7.472;2022-07-03T12:54:58;33.20;44.80
17887;DHT22;9069;52.044;7.472;2022-07-03T12:57:26;33.00;45.00
17887;DHT22;9069;52.044;7.472;2022-07-03T13:00:16;33.00;44.90
17887;DHT22;9069;52.044;7.472;2022-07-03T13:02:45;32.90;45.20
17887;DHT22;9069;52.044;7.472;2022-07-03T13:05:24;32.80;45.30
17887;DHT22;9069;52.044;7.472;2022-07-03T13:07:53;32.80;45.60
17887;DHT22;9069;52.044;7.472;2022-07-03T13:10:22;32.80;45.50
17887;DHT22;9069;52.044;7.472;2022-07-03T13:15:16;32.70;45.50
17887;DHT22;9069;52.044;7.472;2022-07-03T13:17:55;32.60;45.40
17887;DHT22;9069;52.044;7.472;2022-07-03T13:20:40;32.50;45.60
17887;DHT22;9069;52.044;7.472;2022-07-03T13:23:07;32.50;45.40
17887;DHT22;9069;52.044;7.472;2022-07-03T13:25:36;32.40;45.40
17887;DHT22;9069;52.044;7.472;2022-07-03T13:28:07;32.40;45.60
17887;DHT22;9069;52.044;7.472;2022-07-03T13:30:35;32.30;45.40
17887;DHT22;9069;52.044;7.472;2022-07-03T13:33:04;32.20;45.30
17887;DHT22;9069;52.044;7.472;2022-07-03T13:35:32;32.20;45.70
17887;DHT22;9069;52.044;7.472;2022-07-03T13:37:59;32.10;45.10
17887;DHT22;9069;52.044;7.472;2022-07-03T13:40:25;32.10;45.00
17887;DHT22;9069;52.044;7.472;2022-07-03T13:42:52;32.00;45.30
17887;DHT22;9069;52.044;7.472;2022-07-03T13:45:19;31.90;45.50
17887;DHT22;9069;52.044;7.472;2022-07-03T13:47:46;31.90;45.10
17887;DHT22;9069;52.044;7.472;2022-07-03T13:50:13;31.80;45.20
17887;DHT22;9069;52.044;7.472;2022-07-03T13:52:40;31.80;45.20
17887;DHT22;9069;52.044;7.472;2022-07-03T13:55:07;31.80;45.00
17887;DHT22;9069;52.044;7.472;2022-07-03T13:57:34;31.70;44.80
17887;DHT22;9069;52.044;7.472;2022-07-03T14:00:01;31.60;44.90
17887;DHT22;9069;52.044;7.472;2022-07-03T14:02:35;31.50;45.00
17887;DHT22;9069;52.044;7.472;2022-07-03T14:05:01;31.50;45.20
17887;DHT22;9069;52.044;7.472;2022-07-03T14:07:28;31.40;45.10
17887;DHT22;9069;52.044;7.472;2022-07-03T14:09:55;31.40;44.90
17887;DHT22;9069;52.044;7.472;2022-07-03T14:12:22;31.30;45.00
17887;DHT22;9069;52.044;7.472;2022-07-03T14:14:48;31.20;45.00
17887;DHT22;9069;52.044;7.472;2022-07-03T14:17:15;31.20;45.20
17887;DHT22;9069;52.044;7.472;2022-07-03T14:19:42;31.20;45.30
17887;DHT22;9069;52.044;7.472;2022-07-03T14:22:08;31.10;45.30
17887;DHT22;9069;52.044;7.472;2022-07-03T14:24:35;31.10;45.30
17887;DHT22;9069;52.044;7.472;2022-07-03T14:27:02;31.10;45.70
17887;DHT22;9069;52.044;7.472;2022-07-03T14:29:47;31.00;45.50
17887;DHT22;9069;52.044;7.472;2022-07-03T14:32:32;31.00;45.30
17887;DHT22;9069;52.044;7.472;2022-07-03T14:35:00;31.00;45.60
17887;DHT22;9069;52.044;7.472;2022-07-03T14:37:28;31.00;45.60
17887;DHT22;9069;52.044;7.472;2022-07-03T14:39:55;31.00;45.40
17887;DHT22;9069;52.044;7.472;2022-07-03T14:42:22;31.00;45.40
17887;DHT22;9069;52.044;7.472;2022-07-03T14:44:49;31.00;45.70
17887;DHT22;9069;52.044;7.472;2022-07-03T14:47:16;31.00;45.90
17887;DHT22;9069;52.044;7.472;2022-07-03T14:49:44;31.00;45.90
17887;DHT22;9069;52.044;7.472;2022-07-03T14:52:11;31.10;46.00
17887;DHT22;9069;52.044;7.472;2022-07-03T14:54:38;31.00;45.90
17887;DHT22;9069;52.044;7.472;2022-07-03T14:57:23;31.00;46.00
17887;DHT22;9069;52.044;7.472;2022-07-03T15:02:22;31.00;45.90
17887;DHT22;9069;52.044;7.472;2022-07-03T15:05:06;30.90;45.90
17887;DHT22;9069;52.044;7.472;2022-07-03T15:07:41;30.90;46.40
17887;DHT22;9069;52.044;7.472;2022-07-03T15:10:13;30.80;45.80
17887;DHT22;9069;52.044;7.472;2022-07-03T15:12:43;30.80;46.00
17887;DHT22;9069;52.044;7.472;2022-07-03T15:15:14;30.80;46.00
17887;DHT22;9069;52.044;7.472;2022-07-03T15:17:42;30.70;45.90
17887;DHT22;9069;52.044;7.472;2022-07-03T15:20:12;30.70;45.80
17887;DHT22;9069;52.044;7.472;2022-07-03T15:22:45;30.60;45.80
17887;DHT22;9069;52.044;7.472;2022-07-03T15:25:14;30.50;45.80
17887;DHT22;9069;52.044;7.472;2022-07-03T15:27:42;30.40;45.70
17887;DHT22;9069;52.044;7.472;2022-07-03T15:30:10;30.30;45.80
17887;DHT22;9069;52.044;7.472;2022-07-03T15:32:37;30.20;46.00
17887;DHT22;9069;52.044;7.472;2022-07-03T15:35:10;30.10;46.20
17887;DHT22;9069;52.044;7.472;2022-07-03T15:37:44;30.00;46.50
17887;DHT22;9069;52.044;7.472;2022-07-03T15:40:21;30.00;47.10
17887;DHT22;9069;52.044;7.472;2022-07-03T15:45:50;29.90;47.30
17887;DHT22;9069;52.044;7.472;2022-07-03T15:51:22;29.80;47.40
17887;DHT22;9069;52.044;7.472;2022-07-03T15:54:00;29.80;47.40
17887;DHT22;9069;52.044;7.472;2022-07-03T15:56:34;29.80;47.00
17887;DHT22;9069;52.044;7.472;2022-07-03T15:59:06;29.70;47.10
17887;DHT22;9069;52.044;7.472;2022-07-03T16:02:02;29.70;47.10
17887;DHT22;9069;52.044;7.472;2022-07-03T16:07:12;29.60;47.20
17887;DHT22;9069;52.044;7.472;2022-07-03T16:09:41;29.60;47.00
17887;DHT22;9069;52.044;7.472;2022-07-03T16:12:09;29.60;46.90
17887;DHT22;9069;52.044;7.472;2022-07-03T16:14:47;29.60;47.00
17887;DHT22;9069;52.044;7.472;2022-07-03T16:17:19;29.60;47.00
17887;DHT22;9069;52.044;7.472;2022-07-03T16:19:48;29.60;47.10
17887;DHT22;9069;52.044;7.472;2022-07-03T16:22:16;29.50;47.20
17887;DHT22;9069;52.044;7.472;2022-07-03T16:24:43;29.50;47.80
17887;DHT22;9069;52.044;7.472;2022-07-03T16:27:17;29.50;47.10
17887;DHT22;9069;52.044;7.472;2022-07-03T16:29:45;29.50;47.30
17887;DHT22;9069;52.044;7.472;2022-07-03T16:32:19;29.50;47.50
17887;DHT22;9069;52.044;7.472;2022-07-03T16:35:01;29.50;47.50
17887;DHT22;9069;52.044;7.472;2022-07-03T16:40:05;29.50;47.40
17887;DHT22;9069;52.044;7.472;2022-07-03T16:42:34;29.40;47.20
17887;DHT22;9069;52.044;7.472;2022-07-03T16:45:07;29.40;47.20
17887;DHT22;9069;52.044;7.472;2022-07-03T16:47:45;29.30;47.20
17887;DHT22;9069;52.044;7.472;2022-07-03T16:50:18;29.30;47.30
17887;DHT22;9069;52.044;7.472;2022-07-03T16:52:47;29.20;47.30
17887;DHT22;9069;52.044;7.472;2022-07-03T16:55:15;29.20;47.10
17887;DHT22;9069;52.044;7.472;2022-07-03T16:57:51;29.10;47.10
17887;DHT22;9069;52.044;7.472;2022-07-03T17:00:24;29.00;47.30
17887;DHT22;9069;52.044;7.472;2022-07-03T17:02:52;29.00;47.50
17887;DHT22;9069;52.044;7.472;2022-07-03T17:05:21;28.90;47.70
17887;DHT22;9069;52.044;7.472;2022-07-03T17:07:52;28.80;47.90
17887;DHT22;9069;52.044;7.472;2022-07-03T17:10:20;28.80;48.20
17887;DHT22;9069;52.044;7.472;2022-07-03T17:12:49;28.70;48.20
17887;DHT22;9069;52.044;7.472;2022-07-03T17:15:18;28.70;48.50